Weather at Kalamazoo Battle Creek International Airport

Public forecast

Using degrees Fahrenheit for public forecast. Weather courtesy of forecast.io.

Current aviation weather report (METAR) for Kalamazoo Battle Creek International Airport

Report is more than 6 hours old.

Retrieved 2022/09/17 18:53 UTC (17 days ago):

KAZO 171853Z 22011KT 10SM FEW060 SCT080 28/15 A3005 RMK AO2 SLP163 T02780150

Aviation forecast (TAF) for Kalamazoo Battle Creek International Airport

Forecast is more than 12 hours old.

Retrieved 2022/09/17 18:42 UTC (17 days ago):

TAF KAZO 171740Z 1718/1818 22011KT P6SM VCSH SCT050 SCT090 FM172300 20010KT P6SM SCT100 FM180200 19009KT P6SM SCT050 OVC110 FM180600 20009KT P6SM VCSH BKN050 FM181500 20010KT P6SM BKN100